createdAt,value
2018-02-20T00:01:43.344Z,22.47
2018-02-20T00:04:17.162Z,24.37
2018-02-20T00:06:46.025Z,24.20
2018-02-20T00:09:14.642Z,23.93
2018-02-20T00:11:42.800Z,26.47
2018-02-20T00:14:10.951Z,25.20
2018-02-20T00:16:39.062Z,24.47
2018-02-20T00:19:07.195Z,26.60
2018-02-20T00:21:35.306Z,27.27
2018-02-20T00:24:04.532Z,24.60
2018-02-20T00:26:32.642Z,26.33
2018-02-20T00:29:00.763Z,24.70
2018-02-20T00:31:28.870Z,27.63
2018-02-20T00:33:57.002Z,26.17
2018-02-20T00:36:25.109Z,26.17
2018-02-20T00:38:53.232Z,26.50
2018-02-20T00:41:22.203Z,27.40
2018-02-20T00:43:50.335Z,25.00
2018-02-20T00:46:18.434Z,25.30
2018-02-20T00:48:47.783Z,25.40
2018-02-20T00:51:15.896Z,25.03
2018-02-20T00:53:44.027Z,26.00
2018-02-20T00:56:12.131Z,29.03
2018-02-20T00:58:40.259Z,28.77
2018-02-20T01:01:09.130Z,25.53
2018-02-20T01:03:37.267Z,25.37
2018-02-20T01:06:05.378Z,25.80
2018-02-20T01:08:34.876Z,28.20
2018-02-20T01:11:04.186Z,27.90
2018-02-20T01:13:32.325Z,26.83
2018-02-20T01:16:00.423Z,28.37
2018-02-20T01:18:28.622Z,28.00
2018-02-20T01:20:57.493Z,27.63
2018-02-20T01:23:26.998Z,27.33
2018-02-20T01:25:55.093Z,27.03
2018-02-20T01:28:23.994Z,25.90
2018-02-20T01:30:52.106Z,25.07
2018-02-20T01:33:20.240Z,26.73
2018-02-20T01:35:49.119Z,27.87
2018-02-20T01:38:18.472Z,28.53
2018-02-20T01:40:46.574Z,26.50
2018-02-20T01:43:14.702Z,27.73
2018-02-20T01:45:42.809Z,27.67
2018-02-20T01:48:12.810Z,26.70
2018-02-20T01:50:53.722Z,27.30
2018-02-20T01:53:21.842Z,28.20
2018-02-20T01:55:49.974Z,28.20
2018-02-20T01:58:18.862Z,28.97
2018-02-20T02:00:47.733Z,26.30
2018-02-20T02:03:15.874Z,26.07
2018-02-20T02:05:43.982Z,28.20
2018-02-20T02:08:12.109Z,27.23
2018-02-20T02:10:40.215Z,25.53
2018-02-20T02:13:10.123Z,24.27
2018-02-20T02:15:38.218Z,25.90
2018-02-20T02:18:06.352Z,25.20
2018-02-20T02:20:34.823Z,24.70
2018-02-20T02:23:02.926Z,25.07
2018-02-20T02:25:32.567Z,25.60
2018-02-20T02:28:01.472Z,25.93
2018-02-20T02:30:30.350Z,26.37
2018-02-20T02:32:59.225Z,27.10
2018-02-20T02:35:27.350Z,28.60
2018-02-20T02:37:55.462Z,28.37
2018-02-20T02:40:23.599Z,28.40
2018-02-20T02:42:51.728Z,28.00
2018-02-20T02:45:19.851Z,27.93
2018-02-20T02:47:47.970Z,27.80
2018-02-20T02:50:16.111Z,28.90
2018-02-20T02:52:44.212Z,27.97
2018-02-20T02:55:12.343Z,27.23
2018-02-20T02:57:40.447Z,26.63
2018-02-20T03:00:09.060Z,23.60
2018-02-20T03:02:37.928Z,25.97
2018-02-20T03:05:07.429Z,25.57
2018-02-20T03:07:35.538Z,25.00
2018-02-20T03:10:03.696Z,24.57
2018-02-20T03:12:32.565Z,26.43
2018-02-20T03:15:00.717Z,25.13
2018-02-20T03:17:28.814Z,25.43
2018-02-20T03:19:58.046Z,26.00
2018-02-20T03:22:27.914Z,25.13
2018-02-20T03:24:57.414Z,28.20
2018-02-20T03:27:26.270Z,26.00
2018-02-20T03:29:55.386Z,26.70
2018-02-20T03:32:25.309Z,26.03
2018-02-20T03:34:55.603Z,26.50
2018-02-20T03:37:25.558Z,27.83
2018-02-20T03:40:06.052Z,26.67
2018-02-20T03:42:42.590Z,25.43
2018-02-20T03:45:17.854Z,25.80
2018-02-20T03:47:53.986Z,25.27
2018-02-20T03:50:34.959Z,26.57
2018-02-20T03:53:05.562Z,27.57
2018-02-20T03:55:33.710Z,26.50
2018-02-20T03:58:02.629Z,25.80
2018-02-20T04:00:37.667Z,27.00
2018-02-20T04:03:12.309Z,27.50
2018-02-20T04:05:42.300Z,27.07
2018-02-20T04:08:11.165Z,25.27
2018-02-20T04:10:40.172Z,25.17
2018-02-20T04:13:11.192Z,27.30
2018-02-20T04:15:40.018Z,26.47
2018-02-20T04:18:09.346Z,27.37
2018-02-20T04:20:38.128Z,26.63
2018-02-20T04:23:08.261Z,26.10
2018-02-20T04:25:36.652Z,28.10
2018-02-20T04:28:05.623Z,27.70
2018-02-20T04:30:33.928Z,26.60
2018-02-20T04:33:02.057Z,28.20
2018-02-20T04:35:30.195Z,27.10
2018-02-20T04:37:58.790Z,29.07
2018-02-20T04:40:27.702Z,30.57
2018-02-20T04:42:55.821Z,35.23
2018-02-20T04:45:24.334Z,34.40
2018-02-20T04:47:52.452Z,35.20
2018-02-20T04:50:20.589Z,32.60
2018-02-20T04:52:49.470Z,32.27
2018-02-20T04:55:17.608Z,30.97
2018-02-20T04:57:45.724Z,30.93
2018-02-20T05:00:14.109Z,33.17
2018-02-20T05:02:42.987Z,34.27
2018-02-20T05:05:12.110Z,32.90
2018-02-20T05:07:40.239Z,30.00
2018-02-20T05:10:08.376Z,31.47
2018-02-20T05:12:36.484Z,29.80
2018-02-20T05:15:04.617Z,30.23
2018-02-20T05:17:32.740Z,31.60
2018-02-20T05:20:00.889Z,32.87
2018-02-20T05:22:30.336Z,31.03
2018-02-20T05:24:59.233Z,29.40
2018-02-20T05:27:28.108Z,30.17
2018-02-20T05:29:56.250Z,32.03
2018-02-20T05:32:25.099Z,31.10
2018-02-20T05:34:53.681Z,30.63
2018-02-20T05:37:21.794Z,31.00
2018-02-20T05:39:50.793Z,32.43
2018-02-20T05:42:18.901Z,30.77
2018-02-20T05:44:47.036Z,32.23
2018-02-20T05:47:15.169Z,30.83
2018-02-20T05:49:44.090Z,30.00
2018-02-20T05:52:12.208Z,32.03
2018-02-20T05:54:40.373Z,31.30
2018-02-20T05:57:10.904Z,30.60
2018-02-20T05:59:39.039Z,30.10
2018-02-20T06:02:08.348Z,31.10
2018-02-20T06:04:37.498Z,29.97
2018-02-20T06:07:06.183Z,33.73
2018-02-20T06:09:35.166Z,31.07
2018-02-20T06:12:03.285Z,31.37
2018-02-20T06:14:32.067Z,31.20
2018-02-20T06:17:00.196Z,30.87
2018-02-20T06:19:28.315Z,29.83
2018-02-20T06:21:56.987Z,30.83
2018-02-20T06:24:25.110Z,31.00
2018-02-20T06:26:53.245Z,28.60
2018-02-20T06:29:21.360Z,30.50
2018-02-20T06:31:49.497Z,28.30
2018-02-20T06:34:17.603Z,30.23
2018-02-20T06:36:45.735Z,28.53
2018-02-20T06:39:13.877Z,31.30
2018-02-20T06:41:42.466Z,30.40
2018-02-20T06:44:11.869Z,30.30
2018-02-20T06:46:40.784Z,31.33
2018-02-20T06:49:08.903Z,29.67
2018-02-20T06:51:37.061Z,29.07
2018-02-20T06:54:05.189Z,28.63
2018-02-20T06:56:34.128Z,32.20
2018-02-20T06:59:04.040Z,28.00
2018-02-20T07:01:32.941Z,31.30
2018-02-20T07:04:01.147Z,30.90
2018-02-20T07:06:29.304Z,27.97
2018-02-20T07:08:57.415Z,27.70
2018-02-20T07:11:25.570Z,30.07
2018-02-20T07:13:54.150Z,27.73
2018-02-20T07:16:22.287Z,28.80
2018-02-20T07:18:50.400Z,27.80
2018-02-20T07:21:19.309Z,27.10
2018-02-20T07:23:47.428Z,28.07
2018-02-20T07:26:16.929Z,27.80
2018-02-20T07:28:45.492Z,29.20
2018-02-20T07:31:15.678Z,29.67
2018-02-20T07:33:44.991Z,27.40
2018-02-20T07:36:13.143Z,28.17
2018-02-20T07:38:43.475Z,29.53
2018-02-20T07:41:12.390Z,28.50
2018-02-20T07:43:41.296Z,26.57
2018-02-20T07:46:11.223Z,27.60
2018-02-20T07:48:39.351Z,28.03
2018-02-20T07:51:08.258Z,29.10
2018-02-20T07:53:36.368Z,28.33
2018-02-20T07:56:04.510Z,30.03
2018-02-20T07:58:32.620Z,28.67
2018-02-20T08:01:00.758Z,29.27
2018-02-20T08:03:28.877Z,29.80
2018-02-20T08:05:57.021Z,27.93
2018-02-20T08:08:25.150Z,26.93
2018-02-20T08:10:54.098Z,27.17
2018-02-20T08:13:22.196Z,29.83
2018-02-20T08:15:51.320Z,29.40
2018-02-20T08:18:20.214Z,30.50
2018-02-20T08:20:49.603Z,31.80
2018-02-20T08:23:18.493Z,31.03
2018-02-20T08:25:47.399Z,31.73
2018-02-20T08:28:15.532Z,32.87
2018-02-20T08:30:44.140Z,30.83
2018-02-20T08:33:13.032Z,35.10
2018-02-20T08:35:41.940Z,33.80
2018-02-20T08:38:10.505Z,35.53
2018-02-20T08:40:41.105Z,34.03
2018-02-20T08:43:09.225Z,35.77
2018-02-20T08:45:37.916Z,35.70
2018-02-20T08:48:06.034Z,34.20
2018-02-20T08:50:34.575Z,33.50
2018-02-20T08:53:02.696Z,34.50
2018-02-20T08:55:30.853Z,36.13
2018-02-20T08:57:58.980Z,34.60
2018-02-20T09:00:27.871Z,35.03
2018-02-20T09:02:56.787Z,35.60
2018-02-20T09:05:25.440Z,35.53
2018-02-20T09:07:54.361Z,37.80
2018-02-20T09:10:22.521Z,37.33
2018-02-20T09:12:50.678Z,36.43
2018-02-20T09:15:19.563Z,37.60
2018-02-20T09:17:47.754Z,35.40
2018-02-20T09:20:16.897Z,36.20
2018-02-20T09:22:45.090Z,36.77
2018-02-20T09:25:13.209Z,36.83
2018-02-20T09:27:41.366Z,36.37
2018-02-20T09:30:10.272Z,34.30
2018-02-20T09:32:38.422Z,35.40
2018-02-20T09:35:06.604Z,34.00
2018-02-20T09:37:35.507Z,35.47
2018-02-20T09:40:03.636Z,33.87
2018-02-20T09:42:31.772Z,34.30
2018-02-20T09:44:59.896Z,35.73
2018-02-20T09:47:28.465Z,36.13
2018-02-20T09:49:57.281Z,36.10
2018-02-20T09:52:25.829Z,34.77
2018-02-20T09:54:54.055Z,32.67
2018-02-20T09:57:22.225Z,34.97
2018-02-20T09:59:51.133Z,32.77
2018-02-20T10:02:19.268Z,32.87
2018-02-20T10:04:47.391Z,34.50
2018-02-20T10:07:15.531Z,34.37
2018-02-20T10:09:44.425Z,32.50
2018-02-20T10:12:13.342Z,34.87
2018-02-20T10:14:41.456Z,33.97
2018-02-20T10:17:09.595Z,32.17
2018-02-20T10:19:37.961Z,33.83
2018-02-20T10:22:06.381Z,32.00
2018-02-20T10:24:34.515Z,34.87
2018-02-20T10:27:02.661Z,29.93
2018-02-20T10:29:31.541Z,28.00
2018-02-20T10:31:59.680Z,30.10
2018-02-20T10:34:27.793Z,28.20
2018-02-20T10:36:55.936Z,29.00
2018-02-20T10:39:24.054Z,28.37
2018-02-20T10:41:53.088Z,27.00
2018-02-20T10:44:21.201Z,26.53
2018-02-20T10:46:49.430Z,25.97
2018-02-20T10:49:17.554Z,26.23
2018-02-20T10:51:46.643Z,28.17
2018-02-20T10:54:14.762Z,26.23
2018-02-20T10:56:42.916Z,25.53
2018-02-20T10:59:11.619Z,28.67
2018-02-20T11:01:39.891Z,28.00
2018-02-20T11:04:08.740Z,29.20
2018-02-20T11:06:36.881Z,25.03
2018-02-20T11:09:04.995Z,27.97
2018-02-20T11:11:33.136Z,25.27
2018-02-20T11:14:01.266Z,26.50
2018-02-20T11:16:29.493Z,26.47
2018-02-20T11:18:58.509Z,26.77
2018-02-20T11:21:26.732Z,25.30
2018-02-20T11:23:55.768Z,26.57
2018-02-20T11:26:23.940Z,27.57
2018-02-20T11:28:52.061Z,27.10
2018-02-20T11:31:20.221Z,27.10
2018-02-20T11:33:48.345Z,25.00
2018-02-20T11:36:16.462Z,25.83
2018-02-20T11:38:45.659Z,26.73
2018-02-20T11:41:14.539Z,28.23
2018-02-20T11:43:42.676Z,26.80
2018-02-20T11:46:10.795Z,25.67
2018-02-20T11:48:39.927Z,25.93
2018-02-20T11:51:08.146Z,27.10
2018-02-20T11:53:36.306Z,28.03
2018-02-20T11:56:04.425Z,26.20
2018-02-20T11:58:32.574Z,27.23
2018-02-20T12:01:00.680Z,24.47
2018-02-20T12:03:28.826Z,25.87
2018-02-20T12:05:57.704Z,25.73
2018-02-20T12:08:25.845Z,26.77
2018-02-20T12:10:53.964Z,28.10
2018-02-20T12:13:23.159Z,24.83
2018-02-20T12:15:51.764Z,24.57
2018-02-20T12:18:19.975Z,26.20
2018-02-20T12:20:48.115Z,26.73
2018-02-20T12:23:16.252Z,26.93
2018-02-20T12:25:44.372Z,29.40
2018-02-20T12:28:12.516Z,25.40
2018-02-20T12:30:41.812Z,26.50
2018-02-20T12:33:11.180Z,27.70
2018-02-20T12:35:39.309Z,27.90
2018-02-20T12:38:07.485Z,25.83
2018-02-20T12:40:35.620Z,24.10
2018-02-20T12:43:03.779Z,27.90
2018-02-20T12:45:31.904Z,26.77
2018-02-20T12:48:00.186Z,29.33
2018-02-20T12:50:29.109Z,29.63
2018-02-20T12:52:57.501Z,26.80
2018-02-20T12:55:26.534Z,29.87
2018-02-20T12:57:55.437Z,29.50
2018-02-20T13:00:23.564Z,26.80
2018-02-20T13:02:51.707Z,30.10
2018-02-20T13:05:19.830Z,30.20
2018-02-20T13:07:48.791Z,26.70
2018-02-20T13:10:16.920Z,29.27
2018-02-20T13:12:45.069Z,27.97
2018-02-20T13:15:13.188Z,27.10
2018-02-20T13:17:41.512Z,28.73
2018-02-20T13:20:10.578Z,26.10
2018-02-20T13:22:38.709Z,28.20
2018-02-20T13:25:06.837Z,28.50
2018-02-20T13:27:34.988Z,27.83
2018-02-20T13:30:03.114Z,26.20
2018-02-20T13:32:32.033Z,26.63
2018-02-20T13:35:00.159Z,30.50
2018-02-20T13:37:28.314Z,27.70
2018-02-20T13:39:56.434Z,29.27
2018-02-20T13:42:25.466Z,33.07
2018-02-20T13:44:53.635Z,34.80
2018-02-20T13:47:21.784Z,32.57
2018-02-20T13:49:49.917Z,31.90
2018-02-20T13:52:18.066Z,32.40
2018-02-20T13:54:46.186Z,34.57
2018-02-20T13:57:15.301Z,33.40
2018-02-20T13:59:43.422Z,34.13
2018-02-20T14:02:11.568Z,31.30
2018-02-20T14:04:39.709Z,32.97
2018-02-20T14:07:08.608Z,34.77
2018-02-20T14:09:36.726Z,32.03
2018-02-20T14:12:06.130Z,30.43
2018-02-20T14:14:34.281Z,34.20
2018-02-20T14:17:02.402Z,32.57
2018-02-20T14:19:30.551Z,34.33
2018-02-20T14:21:58.679Z,34.50
2018-02-20T14:24:26.832Z,35.70
2018-02-20T14:26:55.722Z,36.07
2018-02-20T14:29:24.629Z,35.53
2018-02-20T14:31:52.773Z,33.10
2018-02-20T14:34:20.910Z,33.50
2018-02-20T14:36:49.032Z,34.10
2018-02-20T14:39:19.077Z,35.63
2018-02-20T14:41:47.212Z,33.93
2018-02-20T14:44:15.370Z,35.80
2018-02-20T14:46:43.474Z,37.43
2018-02-20T14:49:12.388Z,38.63
2018-02-20T14:51:40.521Z,38.23
2018-02-20T14:54:08.662Z,38.03
2018-02-20T14:56:36.776Z,39.93
2018-02-20T14:59:04.926Z,38.77
2018-02-20T15:01:33.037Z,40.37
2018-02-20T15:04:01.936Z,39.33
2018-02-20T15:06:30.063Z,41.80
2018-02-20T15:08:58.218Z,43.90
2018-02-20T15:11:26.388Z,43.17
2018-02-20T15:13:54.533Z,42.40
2018-02-20T15:16:22.666Z,41.43
2018-02-20T15:18:50.800Z,40.30
2018-02-20T15:21:18.915Z,46.60
2018-02-20T15:23:47.066Z,45.57
2018-02-20T15:26:15.194Z,45.97
2018-02-20T15:28:44.102Z,41.80
2018-02-20T15:31:12.222Z,44.57
2018-02-20T15:33:40.533Z,41.47
2018-02-20T15:36:09.416Z,38.47
2018-02-20T15:38:38.338Z,40.27
2018-02-20T15:41:06.458Z,39.00
2018-02-20T15:43:34.615Z,40.00
2018-02-20T15:46:03.510Z,39.83
2018-02-20T15:48:31.664Z,39.33
2018-02-20T15:50:59.795Z,36.87
2018-02-20T15:53:27.937Z,39.03
2018-02-20T15:55:56.056Z,41.70
2018-02-20T15:58:25.454Z,38.83
2018-02-20T16:00:54.346Z,40.73
2018-02-20T16:03:23.262Z,38.43
2018-02-20T16:05:51.372Z,40.20
2018-02-20T16:08:20.683Z,40.10
2018-02-20T16:10:48.799Z,39.73
2018-02-20T16:13:16.945Z,39.30
2018-02-20T16:15:48.128Z,38.57
2018-02-20T16:18:16.276Z,41.07
2018-02-20T16:20:45.158Z,40.10
2018-02-20T16:23:14.083Z,37.60
2018-02-20T16:25:42.339Z,41.83
2018-02-20T16:28:11.304Z,39.50
2018-02-20T16:30:39.436Z,41.03
2018-02-20T16:33:07.581Z,41.70
2018-02-20T16:35:36.477Z,42.43
2018-02-20T16:38:04.639Z,39.37
2018-02-20T16:40:33.531Z,38.80
2018-02-20T16:43:02.443Z,41.43
2018-02-20T16:45:31.764Z,41.83
2018-02-20T16:47:59.904Z,40.47
2018-02-20T16:50:28.800Z,41.57
2018-02-20T16:52:57.695Z,41.97
2018-02-20T16:55:25.812Z,40.07
2018-02-20T16:57:53.989Z,42.87
2018-02-20T17:00:22.135Z,42.07
2018-02-20T17:02:50.270Z,41.47
2018-02-20T17:05:19.200Z,45.07
2018-02-20T17:07:47.322Z,45.00
2018-02-20T17:10:15.472Z,45.47
2018-02-20T17:12:43.595Z,43.93
2018-02-20T17:15:12.496Z,43.13
2018-02-20T17:17:40.976Z,43.50
2018-02-20T17:20:09.153Z,42.80
2018-02-20T17:22:37.287Z,42.93
2018-02-20T17:25:05.449Z,44.77
2018-02-20T17:27:33.685Z,44.93
2018-02-20T17:30:01.853Z,41.70
2018-02-20T17:32:29.976Z,44.20
2018-02-20T17:34:59.890Z,64.43
2018-02-20T17:37:28.802Z,55.73
2018-02-20T17:39:57.729Z,49.50
2018-02-20T17:42:25.861Z,47.97
2018-02-20T17:44:54.005Z,46.10
2018-02-20T17:47:22.335Z,42.20
2018-02-20T17:49:51.575Z,44.47
2018-02-20T17:52:19.761Z,42.33
2018-02-20T17:54:48.797Z,41.20
2018-02-20T17:57:18.014Z,45.00
2018-02-20T17:59:46.578Z,41.77
2018-02-20T18:02:14.855Z,42.50
2018-02-20T18:04:43.776Z,40.33
2018-02-20T18:07:12.096Z,41.53
2018-02-20T18:09:40.232Z,42.97
2018-02-20T18:12:08.348Z,40.80
2018-02-20T18:14:36.509Z,40.07
2018-02-20T18:17:04.653Z,45.10
2018-02-20T18:19:32.826Z,42.90
2018-02-20T18:22:01.101Z,43.57
2018-02-20T18:24:29.410Z,43.20
2018-02-20T18:26:58.618Z,43.30
2018-02-20T18:29:26.896Z,42.70
2018-02-20T18:31:55.004Z,38.60
2018-02-20T18:34:23.915Z,41.73
2018-02-20T18:36:52.038Z,42.53
2018-02-20T18:39:20.168Z,42.97
2018-02-20T18:41:48.297Z,43.87
2018-02-20T18:44:16.455Z,45.30
2018-02-20T18:46:44.606Z,43.70
2018-02-20T18:49:12.765Z,43.20
2018-02-20T18:51:40.994Z,44.17
2018-02-20T18:54:09.160Z,46.57
2018-02-20T18:56:37.283Z,42.33
2018-02-20T18:59:05.432Z,44.40
2018-02-20T19:01:34.360Z,43.30
2018-02-20T19:04:02.509Z,44.10
2018-02-20T19:06:30.658Z,44.93
2018-02-20T19:08:58.810Z,43.60
2018-02-20T19:11:26.956Z,51.77
2018-02-20T19:13:55.099Z,47.10
2018-02-20T19:16:24.001Z,50.40
2018-02-20T19:18:52.841Z,46.20
2018-02-20T19:21:20.965Z,48.57
2018-02-20T19:23:49.117Z,49.47
2018-02-20T19:26:18.745Z,51.20
2018-02-20T19:28:46.926Z,49.57
2018-02-20T19:31:15.056Z,50.00
2018-02-20T19:33:43.205Z,50.40
2018-02-20T19:36:11.359Z,50.40
2018-02-20T19:38:39.486Z,52.27
2018-02-20T19:41:07.634Z,52.27
2018-02-20T19:43:36.512Z,51.63
2018-02-20T19:46:04.665Z,51.70
2018-02-20T19:48:32.802Z,52.33
2018-02-20T19:51:00.953Z,54.10
2018-02-20T19:53:29.073Z,52.10
2018-02-20T19:55:57.239Z,52.30
2018-02-20T19:58:26.159Z,52.27
2018-02-20T20:00:54.306Z,55.13
2018-02-20T20:03:23.200Z,54.20
2018-02-20T20:05:51.373Z,54.00
2018-02-20T20:08:19.515Z,50.90
2018-02-20T20:10:47.738Z,52.63
2018-02-20T20:13:15.882Z,54.67
2018-02-20T20:15:44.792Z,51.77
2018-02-20T20:18:12.908Z,50.10
2018-02-20T20:20:47.936Z,49.47
2018-02-20T20:23:09.190Z,55.40
2018-02-20T20:25:38.130Z,51.53
2018-02-20T20:28:06.261Z,51.67
2018-02-20T20:30:35.187Z,50.50
2018-02-20T20:33:03.305Z,54.60
2018-02-20T20:35:31.453Z,53.10
2018-02-20T20:37:59.579Z,55.10
2018-02-20T20:40:28.503Z,50.33
2018-02-20T20:42:56.648Z,53.10
2018-02-20T20:45:25.554Z,51.27
2018-02-20T20:47:53.690Z,54.37
2018-02-20T20:50:22.616Z,52.13
2018-02-20T20:52:50.855Z,52.57
2018-02-20T20:55:19.021Z,51.17
2018-02-20T20:57:47.139Z,51.60
2018-02-20T21:00:15.292Z,49.43
2018-02-20T21:02:44.180Z,51.93
2018-02-20T21:05:12.534Z,52.43
2018-02-20T21:07:41.458Z,52.70
2018-02-20T21:10:10.488Z,55.40
2018-02-20T21:12:38.614Z,53.70
2018-02-20T21:15:06.756Z,53.27
2018-02-20T21:17:34.889Z,55.90
2018-02-20T21:20:03.029Z,53.83
2018-02-20T21:22:31.151Z,52.20
2018-02-20T21:24:59.340Z,53.30
2018-02-20T21:27:28.245Z,53.60
2018-02-20T21:29:56.410Z,49.97
2018-02-20T21:32:24.608Z,48.70
2018-02-20T21:34:52.759Z,51.00
2018-02-20T21:37:20.914Z,51.23
2018-02-20T21:39:49.049Z,50.50
2018-02-20T21:42:17.948Z,52.27
2018-02-20T21:44:46.860Z,52.00
2018-02-20T21:47:14.990Z,51.20
2018-02-20T21:49:43.150Z,52.90
2018-02-20T21:52:11.280Z,55.20
2018-02-20T21:54:39.413Z,50.90
2018-02-20T21:57:07.538Z,53.50
2018-02-20T21:59:35.702Z,51.53
2018-02-20T22:02:03.929Z,46.57
2018-02-20T22:04:32.081Z,48.63
2018-02-20T22:07:00.209Z,51.20
2018-02-20T22:09:28.336Z,50.23
2018-02-20T22:11:56.468Z,49.60
2018-02-20T22:14:24.596Z,51.67
2018-02-20T22:16:52.745Z,54.13
2018-02-20T22:19:22.312Z,49.80
2018-02-20T22:21:50.449Z,49.93
2018-02-20T22:24:18.560Z,51.70
2018-02-20T22:26:46.713Z,50.70
2018-02-20T22:29:15.608Z,51.10
2018-02-20T22:31:44.521Z,52.67
2018-02-20T22:34:12.640Z,50.57
2018-02-20T22:36:40.786Z,49.00
2018-02-20T22:39:08.912Z,47.30
2018-02-20T22:41:37.824Z,48.57
2018-02-20T22:44:05.954Z,51.70
2018-02-20T22:46:34.113Z,51.07
2018-02-20T22:49:02.235Z,49.60
2018-02-20T22:51:31.144Z,51.77
2018-02-20T22:53:59.275Z,52.40
2018-02-20T22:56:28.196Z,52.20
2018-02-20T22:58:56.333Z,50.27
2018-02-20T23:01:24.481Z,51.67
2018-02-20T23:03:52.615Z,49.97
2018-02-20T23:06:20.777Z,55.47
2018-02-20T23:08:49.652Z,50.70
2018-02-20T23:11:38.508Z,52.17
2018-02-20T23:14:06.653Z,51.33
2018-02-20T23:16:34.804Z,52.33
2018-02-20T23:19:02.938Z,53.27
2018-02-20T23:21:31.072Z,51.47
2018-02-20T23:23:59.195Z,51.27
2018-02-20T23:26:28.104Z,53.90
2018-02-20T23:28:56.980Z,51.93
2018-02-20T23:31:25.896Z,50.50
2018-02-20T23:33:54.021Z,50.17
2018-02-20T23:36:22.180Z,50.40
2018-02-20T23:38:50.298Z,52.10
2018-02-20T23:41:19.209Z,47.37
2018-02-20T23:43:47.330Z,48.30
2018-02-20T23:46:15.465Z,50.40
2018-02-20T23:48:43.583Z,47.80
2018-02-20T23:51:17.474Z,51.03
2018-02-20T23:53:45.588Z,49.20
2018-02-20T23:56:14.496Z,47.47
2018-02-20T23:58:42.624Z,50.70
